Time;durP1;ratioP1;P1;durP2;ratioP2;P2;SDS_P1;SDS_P2;PMS_P1;PMS_P2;Temp;Humidity;BMP_temperature;BMP_pressure;BME280_temperature;BME280_humidity;BME280_pressure;Samples;Min_cycle;Max_cycle;Signal;HPM_P1;HPM_P2
2023/02/27 15:59:54;;;;;;;1.50;0.10;;;24.80;25.30;;;;;;6274273;22;20047;-62
2023/02/27 16:02:24;;;;;;;0.20;0.10;;;24.80;25.20;;;;;;6273586;22;20016;-59
2023/02/27 16:04:52;;;;;;;1.20;0.30;;;24.80;25.10;;;;;;6249859;22;20031;-56
2023/02/27 16:07:23;;;;;;;1.35;0.30;;;24.80;25.00;;;;;;6277975;22;20100;-56
2023/02/27 16:09:54;;;;;;;0.55;0.10;;;24.80;25.00;;;;;;6276186;22;20019;-47
2023/02/27 16:12:28;;;;;;;0.30;0.17;;;24.80;24.80;;;;;;6269851;22;20045;-54
2023/02/27 16:15:22;;;;;;;0.20;0.10;;;24.80;24.60;;;;;;6274168;22;20064;-57
2023/02/27 16:17:58;;;;;;;1.35;0.38;;;24.80;24.40;;;;;;6274470;22;20019;-53
2023/02/27 16:20:30;;;;;;;;;;;24.70;24.00;;;;;;6248900;22;20073;-58
2023/02/27 16:23:04;;;;;;;0.25;0.05;;;24.60;24.90;;;;;;6276047;22;20350;-59
2023/02/27 16:25:32;;;;;;;2.03;0.10;;;24.60;24.60;;;;;;6275455;22;20011;-64
2023/02/27 16:27:59;;;;;;;0.20;0.13;;;24.50;24.50;;;;;;6276406;22;20277;-57
2023/02/27 16:30:27;;;;;;;0.50;0.10;;;24.50;24.50;;;;;;6276619;22;20026;-65
2023/02/27 16:33:00;;;;;;;0.68;0.10;;;24.50;24.30;;;;;;6278230;22;20062;-64
2023/02/27 16:35:28;;;;;;;2.42;0.13;;;24.40;24.20;;;;;;6279334;22;20019;-62
2023/02/27 16:38:00;;;;;;;1.70;0.10;;;24.40;24.40;;;;;;6279088;22;20091;-62
2023/02/27 16:40:28;;;;;;;2.25;0.08;;;24.30;24.40;;;;;;6278796;22;20078;-63
2023/02/27 16:42:56;;;;;;;1.27;0.20;;;24.30;24.90;;;;;;6250245;22;20065;-60
2023/02/27 16:45:24;;;;;;;2.90;0.10;;;24.20;24.90;;;;;;6277483;22;20043;-64
2023/02/27 16:47:55;;;;;;;3.17;0.20;;;24.20;25.30;;;;;;6276736;22;20016;-58
2023/02/27 16:50:28;;;;;;;0.28;0.10;;;24.10;24.20;;;;;;6279388;22;20015;-70
2023/02/27 16:52:56;;;;;;;2.17;0.57;;;23.80;23.00;;;;;;6271358;22;20050;-66
2023/02/27 16:55:24;;;;;;;1.48;0.47;;;23.30;22.70;;;;;;6269602;22;20327;-60
2023/02/27 16:57:51;;;;;;;0.38;0.30;;;22.80;22.30;;;;;;6270404;22;20020;-63
2023/02/27 17:00:19;;;;;;;0.93;0.40;;;22.40;22.30;;;;;;6244245;22;20043;-66
2023/02/27 17:02:47;;;;;;;0.50;0.30;;;21.90;22.20;;;;;;6272050;22;20099;-62
2023/02/27 17:05:15;;;;;;;0.20;0.17;;;21.40;22.10;;;;;;6241346;22;20085;-63
2023/02/27 17:07:43;;;;;;;2.55;0.40;;;21.00;22.20;;;;;;6265604;22;20087;-61
2023/02/27 17:10:15;;;;;;;1.65;0.20;;;20.70;22.30;;;;;;6269161;22;20065;-62
2023/02/27 17:12:45;;;;;;;1.58;0.20;;;20.30;22.40;;;;;;6270455;22;20073;-61
2023/02/27 17:15:12;;;;;;;1.50;0.73;;;20.00;22.50;;;;;;6271204;22;20082;-62
2023/02/27 17:17:40;;;;;;;0.50;0.20;;;19.70;22.50;;;;;;6271627;22;20065;-63
2023/02/27 17:20:09;;;;;;;1.02;0.30;;;19.40;22.60;;;;;;6269192;22;20027;-61
2023/02/27 17:22:38;;;;;;;1.58;0.32;;;19.20;22.80;;;;;;6268798;22;20011;-61
2023/02/27 17:25:06;;;;;;;0.95;0.10;;;18.90;22.80;;;;;;6270551;22;20126;-60
2023/02/27 17:27:33;;;;;;;0.40;0.20;;;18.70;23.00;;;;;;6270822;22;20080;-65
2023/02/27 17:30:00;;;;;;;0.70;0.20;;;18.40;23.10;;;;;;6270965;22;20051;-67
2023/02/27 17:32:27;;;;;;;0.70;0.10;;;18.30;23.30;;;;;;6271207;22;20016;-63
2023/02/27 17:34:55;;;;;;;0.65;0.28;;;18.10;23.40;;;;;;6270457;22;20766;-62
2023/02/27 17:37:23;;;;;;;0.82;0.45;;;17.90;23.50;;;;;;6269937;22;20026;-53
2023/02/27 17:39:52;;;;;;;0.55;0.40;;;17.80;23.60;;;;;;6268878;22;20027;-62
2023/02/27 17:42:19;;;;;;;0.95;0.13;;;17.60;23.70;;;;;;6270041;22;20047;-65
2023/02/27 17:44:46;;;;;;;3.80;1.05;;;17.50;23.90;;;;;;6268515;22;20007;-54
2023/02/27 17:47:13;;;;;;;0.68;0.20;;;17.30;24.00;;;;;;6269106;22;20039;-55
2023/02/27 17:49:41;;;;;;;3.40;0.98;;;17.20;24.10;;;;;;6268031;22;20457;-62
2023/02/27 17:52:08;;;;;;;0.30;0.20;;;17.00;24.30;;;;;;6241036;22;20019;-62
2023/02/27 17:54:36;;;;;;;1.08;0.40;;;16.90;24.70;;;;;;6240942;22;20069;-58
2023/02/27 17:57:05;;;;;;;9.48;0.30;;;16.80;24.80;;;;;;6268711;22;20050;-58
2023/02/27 17:59:33;;;;;;;1.42;0.20;;;16.80;25.40;;;;;;6268275;22;20264;-53
2023/02/27 18:02:00;;;;;;;2.03;0.30;;;16.60;25.30;;;;;;6268733;22;20114;-55
2023/02/27 18:04:27;;;;;;;1.75;0.20;;;16.50;25.30;;;;;;6268462;22;20327;-56
2023/02/27 18:06:54;;;;;;;2.75;0.68;;;16.40;25.40;;;;;;6268516;22;20094;-53
2023/02/27 18:09:21;;;;;;;0.95;0.20;;;16.30;25.30;;;;;;6267950;22;20050;-55
2023/02/27 18:11:48;;;;;;;2.33;0.52;;;16.20;25.40;;;;;;6268308;22;20658;-59
2023/02/27 18:14:16;;;;;;;0.40;0.40;;;16.10;25.40;;;;;;6268531;22;20215;-57
2023/02/27 18:16:44;;;;;;;2.50;0.38;;;16.00;25.60;;;;;;6267624;22;20014;-58
2023/02/27 18:19:11;;;;;;;3.95;0.20;;;15.90;25.70;;;;;;6267158;22;20027;-56
2023/02/27 18:21:38;;;;;;;1.20;0.20;;;15.80;25.70;;;;;;6266837;22;20018;-58
2023/02/27 18:24:05;;;;;;;0.52;0.10;;;15.80;25.80;;;;;;6267291;22;20323;-60
2023/02/27 18:29:15;;;;;;;0.52;0.10;;;15.70;26.40;;;;;;6202431;23;20021;-52
2023/02/27 18:31:45;;;;;;;3.20;0.15;;;15.90;26.70;;;;;;6205421;23;20549;-53
2023/02/27 18:34:13;;;;;;;0.45;0.10;;;16.10;27.00;;;;;;6205183;23;20031;-51
2023/02/27 18:36:40;;;;;;;0.52;0.13;;;16.40;27.10;;;;;;6207362;23;20013;-50
2023/02/27 18:39:08;;;;;;;0.20;0.20;;;16.60;27.30;;;;;;6206195;23;20040;-50
2023/02/27 18:41:35;;;;;;;1.90;0.10;;;16.80;27.40;;;;;;6207024;23;20027;-54
2023/02/27 18:44:03;;;;;;;0.52;0.10;;;17.00;27.50;;;;;;6206788;23;20745;-58
2023/02/27 18:46:30;;;;;;;0.85;0.10;;;17.20;27.50;;;;;;6201066;23;20031;-52
2023/02/27 18:48:59;;;;;;;0.20;0.20;;;17.40;27.50;;;;;;6203827;23;20035;-56
2023/02/27 19:21:08;;;;;;;3.83;0.32;;;19.60;28.00;;;;;;6216100;22;20038;-62
